| time (UTC) | temp C | wind direction | speed KPH | gust KPH | rain 1hr cm | rain 24hr cm | rain mn cm | humidity % | barometer mb |
| 20260508191038 | 17 | 94 | 6.4 | 12.9 | 0.00 | 0.03 | 0.00 | 84 | 1011.5 |
| 20260508190033 | 17 | 93 | 6.4 | 11.3 | 0.00 | 0.10 | 0.00 | 84 | 1011.5 |
| 20260508185029 | 17 | 89 | 4.8 | 11.3 | 0.00 | 0.15 | 0.00 | 84 | 1011.4 |
| 20260508184024 | 17 | 90 | 8.0 | 16.1 | 0.00 | 0.18 | 0.00 | 82 | 1011.2 |
| 20260508183020 | 17 | 96 | 8.0 | 16.1 | 0.00 | 0.23 | 0.00 | 81 | 1011.0 |
| 20260508182035 | 17 | 90 | 9.7 | 22.5 | 0.00 | 0.30 | 0.00 | 80 | 1011.0 |
| 20260508181030 | 17 | 91 | 11.3 | 20.9 | 0.00 | 0.36 | 0.00 | 78 | 1011.0 |
| 20260508180026 | 18 | 93 | 12.9 | 20.9 | 0.00 | 0.53 | 0.00 | 77 | 1011.0 |
| 20260508175041 | 18 | 83 | 9.7 | 20.9 | 0.00 | 0.71 | 0.00 | 75 | 1011.0 |
| 20260508174016 | 18 | 84 | 8.0 | 16.1 | 0.00 | 0.76 | 0.00 | 75 | 1011.0 |
| 20260508173032 | 18 | 100 | 9.7 | 16.1 | 0.00 | 0.81 | 0.00 | 73 | 1011.0 |
| 20260508172027 | 18 | 116 | 8.0 | 14.5 | 0.00 | 0.84 | 0.00 | 72 | 1011.0 |
| 20260508171043 | 18 | 93 | 11.3 | 20.9 | 0.00 | 0.84 | 0.00 | 71 | 1010.9 |
| 20260508170018 | 18 | 99 | 11.3 | 20.9 | 0.00 | 0.84 | 0.00 | 71 | 1010.9 |
| 20260508165054 | 18 | 104 | 11.3 | 17.7 | 0.00 | 0.84 | 0.00 | 70 | 1010.9 |
| 20260508164029 | 18 | 114 | 9.7 | 16.1 | 0.00 | 0.84 | 0.00 | 69 | 1011.0 |
| 20260508163025 | 18 | 113 | 12.9 | 20.9 | 0.00 | 0.84 | 0.00 | 70 | 1011.0 |
| 20260508162020 | 18 | 94 | 12.9 | 20.9 | 0.00 | 0.84 | 0.00 | 72 | 1010.9 |
| 20260508161016 | 18 | 115 | 11.3 | 22.5 | 0.00 | 0.84 | 0.00 | 72 | 1010.9 |
| 20260508160031 | 18 | 114 | 11.3 | 24.1 | 0.00 | 0.84 | 0.00 | 75 | 1010.6 |
| 20260508155027 | 18 | 121 | 12.9 | 24.1 | 0.00 | 0.84 | 0.00 | 74 | 1010.5 |
| 20260508154023 | 18 | 107 | 12.9 | 22.5 | 0.00 | 0.84 | 0.00 | 75 | 1010.3 |
| 20260508153038 | 18 | 105 | 14.5 | 24.1 | 0.00 | 0.84 | 0.00 | 72 | 1010.4 |
| 20260508152033 | 18 | 97 | 12.9 | 25.7 | 0.00 | 0.84 | 0.00 | 74 | 1010.3 |
| 20260508151029 | 18 | 104 | 12.9 | 27.4 | 0.00 | 0.84 | 0.00 | 76 | 1010.5 |
| 20260508150025 | 19 | 116 | 14.5 | 29.0 | 0.00 | 0.84 | 0.00 | 73 | 1010.4 |
| 20260508145021 | 19 | 119 | 17.7 | 27.4 | 0.00 | 0.84 | 0.00 | 69 | 1010.7 |
| 20260508144015 | 19 | 116 | 16.1 | 25.7 | 0.00 | 0.84 | 0.00 | 68 | 1010.8 |
| 20260508143031 | 20 | 108 | 12.9 | 24.1 | 0.00 | 0.84 | 0.00 | 65 | 1011.1 |
| 20260508142026 | 20 | 62 | 6.4 | 12.9 | 0.00 | 0.84 | 0.00 | 65 | 1011.2 |
| 20260508141042 | 20 | 81 | 3.2 | 9.7 | 0.00 | 0.84 | 0.00 | 65 | 1011.3 |
| 20260508140018 | 19 | 79 | 8.0 | 16.1 | 0.00 | 0.84 | 0.00 | 68 | 1011.5 |
| 20260508135033 | 18 | 74 | 8.0 | 16.1 | 0.00 | 0.84 | 0.00 | 70 | 1011.6 |
| 20260508134029 | 18 | 73 | 8.0 | 17.7 | 0.00 | 0.84 | 0.00 | 70 | 1011.5 |
| 20260508133044 | 18 | 83 | 4.8 | 12.9 | 0.00 | 0.84 | 0.00 | 70 | 1011.6 |
| 20260508132020 | 18 | 51 | 3.2 | 6.4 | 0.00 | 0.84 | 0.00 | 71 | 1012.0 |
| 20260508131035 | 18 | 47 | 3.2 | 9.7 | 0.00 | 0.84 | 0.00 | 71 | 1012.2 |
| 20260508130030 | 18 | 101 | 4.8 | 11.3 | 0.00 | 0.84 | 0.00 | 71 | 1012.4 |
| 20260508125025 | 17 | 82 | 3.2 | 9.7 | 0.00 | 0.84 | 0.00 | 72 | 1012.2 |
| 20260508124021 | 17 | 98 | 3.2 | 9.7 | 0.00 | 0.84 | 0.00 | 72 | 1012.4 |
| 20260508123016 | 17 | 84 | 1.6 | 4.8 | 0.00 | 0.84 | 0.00 | 72 | 1012.5 |
| 20260508122051 | 17 | 93 | 3.2 | 9.7 | 0.00 | 0.84 | 0.00 | 73 | 1012.5 |
| 20260508121027 | 17 | 110 | 3.2 | 6.4 | 0.00 | 0.84 | 0.00 | 77 | 1012.6 |
| 20260508120042 | 17 | 128 | 1.6 | 6.4 | 0.00 | 0.84 | 0.00 | 76 | 1012.6 |
| 20260508115018 | 17 | 128 | 1.6 | 4.8 | 0.00 | 0.84 | 0.00 | 76 | 1012.5 |
| 20260508114033 | 17 | 80 | 0.0 | 3.2 | 0.00 | 0.84 | 0.00 | 76 | 1012.4 |
| 20260508113028 | 17 | 68 | 0.0 | 1.6 | 0.00 | 0.84 | 0.00 | 76 | 1012.4 |
| 20260508112024 | 17 | 86 | 1.6 | 3.2 | 0.00 | 0.84 | 0.00 | 76 | 1012.3 |
| 20260508111019 | 17 | 82 | 3.2 | 4.8 | 0.00 | 0.84 | 0.00 | 76 | 1012.3 |
| 20260508110035 | 17 | 102 | 4.8 | 6.4 | 0.00 | 0.84 | 0.00 | 76 | 1012.4 |
| 20260508105051 | 17 | 91 | 4.8 | 9.7 | 0.00 | 0.86 | 0.00 | 77 | 1012.5 |
| 20260508104026 | 17 | 96 | 4.8 | 9.7 | 0.00 | 0.86 | 0.00 | 76 | 1012.5 |
| 20260508103042 | 17 | 105 | 3.2 | 4.8 | 0.00 | 0.86 | 0.00 | 75 | 1012.8 |
| 20260508102017 | 17 | 108 | 0.0 | 3.2 | 0.00 | 0.86 | 0.00 | 74 | 1012.9 |
| 20260508101032 | 17 | 89 | 1.6 | 4.8 | 0.00 | 0.86 | 0.00 | 74 | 1012.8 |
| 20260508100048 | 17 | 87 | 1.6 | 3.2 | 0.00 | 0.86 | 0.00 | 74 | 1012.6 |
| 20260508095023 | 17 | 91 | 1.6 | 6.4 | 0.00 | 0.86 | 0.00 | 74 | 1012.5 |
| 20260508094019 | 17 | 97 | 4.8 | 9.7 | 0.00 | 0.86 | 0.00 | 74 | 1012.3 |
| 20260508093034 | 17 | 75 | 0.0 | 3.2 | 0.00 | 0.86 | 0.00 | 71 | 1012.4 |
| 20260508092029 | 18 | 108 | 3.2 | 9.7 | 0.00 | 0.86 | 0.00 | 68 | 1012.6 |
| 20260508091044 | 17 | 23 | 0.0 | 1.6 | 0.00 | 0.86 | 0.00 | 68 | 1012.5 |
| 20260508090020 | 17 | 298 | 1.6 | 4.8 | 0.00 | 0.86 | 0.00 | 69 | 1012.6 |
| 20260508085035 | 16 | 279 | 3.2 | 6.4 | 0.00 | 0.86 | 0.00 | 71 | 1012.5 |
| 20260508084030 | 16 | 320 | 1.6 | 3.2 | 0.00 | 0.86 | 0.00 | 73 | 1012.2 |
| 20260508083046 | 15 | 7 | 4.8 | 11.3 | 0.00 | 0.86 | 0.00 | 75 | 1011.8 |
| 20260508082021 | 15 | 309 | 1.6 | 4.8 | 0.00 | 0.86 | 0.00 | 78 | 1011.9 |
| 20260508081016 | 14 | 327 | 3.2 | 9.7 | 0.00 | 0.86 | 0.00 | 78 | 1012.0 |
| 20260508080032 | 14 | 324 | 4.8 | 9.7 | 0.00 | 0.86 | 0.00 | 78 | 1012.0 |
| 20260508075027 | 14 | 293 | 4.8 | 9.7 | 0.00 | 0.86 | 0.00 | 78 | 1012.1 |
| 20260508074022 | 14 | 331 | 4.8 | 9.7 | 0.00 | 0.86 | 0.00 | 79 | 1011.9 |
| 20260508073018 | 13 | 302 | 4.8 | 9.7 | 0.00 | 0.86 | 0.00 | 79 | 1012.2 |
| 20260508072033 | 13 | 301 | 4.8 | 9.7 | 0.00 | 0.86 | 0.00 | 80 | 1012.1 |
| 20260508071029 | 13 | 318 | 4.8 | 9.7 | 0.00 | 0.86 | 0.00 | 81 | 1012.0 |
| 20260508070024 | 13 | 320 | 6.4 | 12.9 | 0.00 | 0.86 | 0.00 | 82 | 1012.2 |
| 20260508065059 | 13 | 286 | 3.2 | 6.4 | 0.00 | 0.86 | 0.00 | 82 | 1012.1 |
| 20260508064055 | 13 | 277 | 1.6 | 6.4 | 0.00 | 0.86 | 0.00 | 82 | 1011.9 |
| 20260508063030 | 12 | 355 | 3.2 | 9.7 | 0.00 | 0.86 | 0.00 | 82 | 1011.5 |
| 20260508062045 | 12 | 297 | 1.6 | 6.4 | 0.00 | 0.86 | 0.00 | 82 | 1011.6 |
| 20260508061021 | 12 | 313 | 3.2 | 6.4 | 0.00 | 0.86 | 0.00 | 83 | 1011.5 |
| 20260508060016 | 12 | 312 | 4.8 | 9.7 | 0.00 | 0.86 | 0.00 | 82 | 1011.4 |
| 20260508055032 | 12 | 299 | 3.2 | 9.7 | 0.00 | 0.86 | 0.00 | 84 | 1011.4 |
| 20260508054027 | 12 | 336 | 3.2 | 6.4 | 0.00 | 0.86 | 0.00 | 84 | 1011.0 |
| 20260508053022 | 12 | 295 | 6.4 | 11.3 | 0.00 | 0.86 | 0.00 | 85 | 1011.1 |
| 20260508052018 | 11 | 279 | 8.0 | 12.9 | 0.00 | 0.86 | 0.00 | 85 | 1010.9 |
| 20260508051034 | 11 | 288 | 6.4 | 12.9 | 0.00 | 0.86 | 0.00 | 86 | 1010.6 |
| 20260508050029 | 11 | 279 | 6.4 | 12.9 | 0.00 | 0.86 | 0.00 | 86 | 1010.5 |
| 20260508045024 | 12 | 272 | 4.8 | 12.9 | 0.00 | 0.86 | 0.00 | 85 | 1010.5 |
| 20260508044020 | 12 | 295 | 1.6 | 3.2 | 0.00 | 0.86 | 0.00 | 85 | 1010.4 |
| 20260508043035 | 12 | 309 | 1.6 | 4.8 | 0.00 | 0.86 | 0.00 | 85 | 1010.2 |
| 20260508042031 | 12 | 327 | 1.6 | 3.2 | 0.00 | 0.86 | 0.00 | 85 | 1010.4 |
| 20260508041046 | 12 | 323 | 0.0 | 6.4 | 0.00 | 0.86 | 0.00 | 85 | 1010.3 |
| 20260508040021 | 12 | 305 | 6.4 | 12.9 | 0.00 | 0.86 | 0.00 | 85 | 1010.1 |
| 20260508035017 | 12 | 303 | 6.4 | 16.1 | 0.00 | 0.86 | 0.00 | 85 | 1010.1 |
| 20260508034033 | 12 | 299 | 6.4 | 12.9 | 0.00 | 0.86 | 0.00 | 85 | 1010.2 |
| 20260508033027 | 12 | 301 | 4.8 | 11.3 | 0.00 | 0.86 | 0.00 | 84 | 1010.3 |
| 20260508032023 | 12 | 306 | 3.2 | 6.4 | 0.00 | 0.86 | 0.00 | 85 | 1010.5 |
| 20260508031019 | 12 | 337 | 0.0 | 3.2 | 0.00 | 0.86 | 0.00 | 85 | 1010.7 |
| 20260508030034 | 12 | 334 | 0.0 | 3.2 | 0.00 | 0.86 | 0.00 | 85 | 1010.7 |
| 20260508025050 | 12 | 0.0 | 0.0 | 0.00 | 0.86 | 0.00 | 85 | 1010.7 | |
| 20260508024025 | 12 | 343 | 1.6 | 4.8 | 0.00 | 0.86 | 0.00 | 84 | 1010.9 |
| 20260508023020 | 12 | 305 | 1.6 | 4.8 | 0.00 | 0.86 | 0.00 | 83 | 1010.9 |
| 20260508022016 | 12 | 323 | 4.8 | 9.7 | 0.00 | 0.86 | 0.00 | 83 | 1010.6 |
| 20260508021031 | 12 | 312 | 8.0 | 12.9 | 0.00 | 0.86 | 0.00 | 83 | 1010.8 |
| 20260508020047 | 12 | 311 | 6.4 | 11.3 | 0.00 | 0.86 | 0.00 | 84 | 1011.1 |
| 20260508015022 | 13 | 289 | 6.4 | 11.3 | 0.00 | 0.86 | 0.00 | 84 | 1011.0 |
| 20260508014017 | 13 | 293 | 6.4 | 12.9 | 0.00 | 0.86 | 0.00 | 83 | 1010.9 |
| 20260508013033 | 13 | 299 | 6.4 | 11.3 | 0.00 | 0.86 | 0.00 | 83 | 1011.0 |
| 20260508012028 | 13 | 308 | 6.4 | 12.9 | 0.00 | 0.86 | 0.00 | 83 | 1011.2 |
| 20260508011023 | 13 | 304 | 8.0 | 12.9 | 0.00 | 0.86 | 0.00 | 83 | 1011.2 |
| 20260508010019 | 13 | 305 | 8.0 | 11.3 | 0.00 | 0.86 | 0.00 | 84 | 1011.3 |
| 20260508005034 | 13 | 298 | 8.0 | 14.5 | 0.00 | 0.86 | 0.00 | 86 | 1011.4 |
| 20260508004030 | 13 | 293 | 8.0 | 16.1 | 0.00 | 0.86 | 0.00 | 87 | 1011.5 |
| 20260508003025 | 13 | 290 | 6.4 | 12.9 | 0.00 | 0.86 | 0.00 | 88 | 1011.6 |
| 20260508002020 | 13 | 293 | 6.4 | 12.9 | 0.00 | 0.86 | 0.00 | 88 | 1011.6 |
| 20260508001035 | 13 | 281 | 8.0 | 12.9 | 0.00 | 0.86 | 0.00 | 88 | 1011.6 |
| 20260508000050 | 13 | 289 | 8.0 | 14.5 | 0.00 | 0.86 | 0.86 | 86 | 1011.7 |
| 20260507235026 | 13 | 291 | 6.4 | 12.9 | 0.00 | 0.86 | 0.86 | 83 | 1011.7 |
| 20260507234021 | 13 | 294 | 6.4 | 11.3 | 0.00 | 0.86 | 0.86 | 84 | 1011.8 |
| 20260507233016 | 13 | 304 | 8.0 | 11.3 | 0.00 | 0.86 | 0.86 | 86 | 1011.9 |
| 20260507232032 | 13 | 312 | 8.0 | 14.5 | 0.00 | 0.86 | 0.86 | 89 | 1012.0 |
| 20260507231047 | 13 | 299 | 6.4 | 12.9 | 0.00 | 0.86 | 0.86 | 90 | 1012.0 |
| 20260507230023 | 13 | 315 | 8.0 | 12.9 | 0.00 | 0.86 | 0.86 | 91 | 1011.9 |
| 20260507225018 | 13 | 314 | 6.4 | 11.3 | 0.00 | 0.86 | 0.86 | 91 | 1012.0 |
| 20260507224033 | 13 | 310 | 6.4 | 11.3 | 0.00 | 0.86 | 0.86 | 92 | 1012.1 |
| 20260507223049 | 13 | 322 | 6.4 | 11.3 | 0.00 | 0.86 | 0.86 | 93 | 1012.2 |
| 20260507222024 | 13 | 312 | 8.0 | 12.9 | 0.00 | 0.86 | 0.86 | 93 | 1012.2 |
| 20260507221020 | 13 | 312 | 6.4 | 11.3 | 0.00 | 0.86 | 0.86 | 93 | 1012.3 |
| 20260507220015 | 13 | 295 | 4.8 | 12.9 | 0.00 | 0.86 | 0.86 | 93 | 1012.2 |
| 20260507215031 | 13 | 307 | 4.8 | 11.3 | 0.00 | 0.86 | 0.86 | 93 | 1012.1 |
| 20260507214026 | 13 | 315 | 4.8 | 11.3 | 0.00 | 0.86 | 0.86 | 93 | 1012.0 |
| 20260507213022 | 13 | 307 | 4.8 | 11.3 | 0.00 | 0.86 | 0.86 | 93 | 1012.0 |
| 20260507212017 | 13 | 287 | 4.8 | 6.4 | 0.00 | 0.86 | 0.86 | 93 | 1011.8 |
| 20260507211032 | 13 | 288 | 4.8 | 6.4 | 0.00 | 0.86 | 0.86 | 93 | 1011.7 |
| 20260507210108 | 13 | 298 | 4.8 | 6.4 | 0.00 | 0.86 | 0.86 | 93 | 1011.6 |
| 20260507205023 | 13 | 307 | 4.8 | 6.4 | 0.00 | 0.86 | 0.86 | 93 | 1011.3 |
| 20260507204018 | 13 | 318 | 3.2 | 6.4 | 0.00 | 0.86 | 0.86 | 93 | 1011.3 |
| 20260507203034 | 13 | 350 | 1.6 | 3.2 | 0.00 | 0.86 | 0.86 | 93 | 1011.2 |
| 20260507202029 | 13 | 1 | 1.6 | 3.2 | 0.00 | 0.86 | 0.86 | 93 | 1011.3 |
| 20260507201024 | 13 | 14 | 0.0 | 1.6 | 0.03 | 0.86 | 0.86 | 92 | 1011.2 |
| 20260507200021 | 13 | 0.0 | 0.0 | 0.10 | 0.86 | 0.86 | 92 | 1011.1 | |
| 20260507195036 | 13 | 345 | 1.6 | 4.8 | 0.15 | 0.86 | 0.86 | 91 | 1011.0 |
| 20260507194031 | 14 | 360 | 1.6 | 1.6 | 0.18 | 0.86 | 0.86 | 91 | 1010.9 |
| 20260507193047 | 13 | 112 | 0.0 | 1.6 | 0.23 | 0.86 | 0.86 | 90 | 1010.9 |
| 20260507192022 | 13 | 268 | 1.6 | 4.8 | 0.28 | 0.84 | 0.84 | 90 | 1010.7 |